sensor_id;sensor_type;location;lat;lon;timestamp;P1;durP1;ratioP1;P2;durP2;ratioP2
53751;SDS011;41095;53.090;6.692;2022-10-26T00:00:29;6.75;;;5.53;;
53751;SDS011;41095;53.090;6.692;2022-10-26T00:02:54;6.68;;;5.18;;
53751;SDS011;41095;53.090;6.692;2022-10-26T00:05:21;6.57;;;5.35;;
53751;SDS011;41095;53.090;6.692;2022-10-26T00:07:47;9.13;;;6.13;;
53751;SDS011;41095;53.090;6.692;2022-10-26T00:10:14;5.90;;;5.32;;
53751;SDS011;41095;53.090;6.692;2022-10-26T00:12:39;8.15;;;6.38;;
53751;SDS011;41095;53.090;6.692;2022-10-26T00:15:05;9.70;;;7.60;;
53751;SDS011;41095;53.090;6.692;2022-10-26T00:17:31;8.75;;;5.82;;
53751;SDS011;41095;53.090;6.692;2022-10-26T00:19:57;11.07;;;6.68;;
53751;SDS011;41095;53.090;6.692;2022-10-26T00:22:24;10.32;;;7.18;;
53751;SDS011;41095;53.090;6.692;2022-10-26T00:24:50;9.77;;;5.75;;
53751;SDS011;41095;53.090;6.692;2022-10-26T00:27:16;5.95;;;5.35;;
53751;SDS011;41095;53.090;6.692;2022-10-26T00:29:42;8.32;;;5.70;;
53751;SDS011;41095;53.090;6.692;2022-10-26T00:32:08;8.02;;;5.80;;
53751;SDS011;41095;53.090;6.692;2022-10-26T00:34:33;5.65;;;4.97;;
53751;SDS011;41095;53.090;6.692;2022-10-26T00:36:59;7.72;;;6.22;;
53751;SDS011;41095;53.090;6.692;2022-10-26T00:39:25;7.82;;;6.10;;
53751;SDS011;41095;53.090;6.692;2022-10-26T00:41:50;18.58;;;5.82;;
53751;SDS011;41095;53.090;6.692;2022-10-26T00:47:28;6.85;;;4.63;;
53751;SDS011;41095;53.090;6.692;2022-10-26T00:49:58;9.02;;;6.45;;
53751;SDS011;41095;53.090;6.692;2022-10-26T00:52:28;11.10;;;7.25;;
53751;SDS011;41095;53.090;6.692;2022-10-26T00:54:54;10.20;;;7.10;;
53751;SDS011;41095;53.090;6.692;2022-10-26T00:57:20;12.35;;;7.35;;
53751;SDS011;41095;53.090;6.692;2022-10-26T00:59:46;10.95;;;7.32;;
53751;SDS011;41095;53.090;6.692;2022-10-26T01:02:16;10.80;;;7.75;;
53751;SDS011;41095;53.090;6.692;2022-10-26T01:04:41;10.48;;;7.30;;
53751;SDS011;41095;53.090;6.692;2022-10-26T01:07:10;14.38;;;8.45;;
53751;SDS011;41095;53.090;6.692;2022-10-26T01:09:36;10.80;;;8.02;;
53751;SDS011;41095;53.090;6.692;2022-10-26T01:12:02;10.73;;;8.27;;
53751;SDS011;41095;53.090;6.692;2022-10-26T01:14:28;10.85;;;7.80;;
53751;SDS011;41095;53.090;6.692;2022-10-26T01:22:33;11.10;;;7.82;;
53751;SDS011;41095;53.090;6.692;2022-10-26T01:28:26;10.07;;;7.63;;
53751;SDS011;41095;53.090;6.692;2022-10-26T01:30:55;10.68;;;8.45;;
53751;SDS011;41095;53.090;6.692;2022-10-26T01:33:28;10.00;;;7.72;;
53751;SDS011;41095;53.090;6.692;2022-10-26T01:38:39;10.57;;;7.82;;
53751;SDS011;41095;53.090;6.692;2022-10-26T01:41:22;9.02;;;8.10;;
53751;SDS011;41095;53.090;6.692;2022-10-26T01:43:54;11.40;;;7.80;;
53751;SDS011;41095;53.090;6.692;2022-10-26T01:46:24;12.50;;;8.90;;
53751;SDS011;41095;53.090;6.692;2022-10-26T01:48:52;10.23;;;6.82;;
53751;SDS011;41095;53.090;6.692;2022-10-26T01:51:22;14.15;;;7.65;;
53751;SDS011;41095;53.090;6.692;2022-10-26T01:53:49;12.43;;;8.02;;
53751;SDS011;41095;53.090;6.692;2022-10-26T01:56:21;11.75;;;8.30;;
53751;SDS011;41095;53.090;6.692;2022-10-26T01:59:00;11.85;;;9.75;;
53751;SDS011;41095;53.090;6.692;2022-10-26T02:01:41;14.07;;;8.85;;
53751;SDS011;41095;53.090;6.692;2022-10-26T02:09:40;15.52;;;9.77;;
53751;SDS011;41095;53.090;6.692;2022-10-26T02:12:20;11.60;;;10.10;;
53751;SDS011;41095;53.090;6.692;2022-10-26T02:14:49;10.60;;;8.30;;
53751;SDS011;41095;53.090;6.692;2022-10-26T02:17:45;11.40;;;9.13;;
53751;SDS011;41095;53.090;6.692;2022-10-26T02:20:22;15.90;;;9.10;;
53751;SDS011;41095;53.090;6.692;2022-10-26T02:22:53;12.07;;;8.52;;
53751;SDS011;41095;53.090;6.692;2022-10-26T02:25:22;11.70;;;8.82;;
53751;SDS011;41095;53.090;6.692;2022-10-26T02:28:02;12.50;;;8.52;;
53751;SDS011;41095;53.090;6.692;2022-10-26T02:30:34;10.25;;;8.82;;
53751;SDS011;41095;53.090;6.692;2022-10-26T02:33:03;10.80;;;8.55;;
53751;SDS011;41095;53.090;6.692;2022-10-26T02:35:31;10.57;;;8.75;;
53751;SDS011;41095;53.090;6.692;2022-10-26T02:38:00;13.13;;;8.88;;
53751;SDS011;41095;53.090;6.692;2022-10-26T02:40:30;13.77;;;8.85;;
53751;SDS011;41095;53.090;6.692;2022-10-26T02:42:59;9.75;;;8.30;;
53751;SDS011;41095;53.090;6.692;2022-10-26T02:45:32;11.77;;;9.50;;
53751;SDS011;41095;53.090;6.692;2022-10-26T02:48:01;11.20;;;7.65;;
53751;SDS011;41095;53.090;6.692;2022-10-26T02:50:30;12.00;;;8.00;;
53751;SDS011;41095;53.090;6.692;2022-10-26T02:53:01;13.93;;;9.93;;
53751;SDS011;41095;53.090;6.692;2022-10-26T02:55:50;12.80;;;9.65;;
53751;SDS011;41095;53.090;6.692;2022-10-26T02:58:21;16.92;;;10.10;;
53751;SDS011;41095;53.090;6.692;2022-10-26T03:00:53;12.57;;;9.15;;
53751;SDS011;41095;53.090;6.692;2022-10-26T03:03:19;11.20;;;8.52;;
53751;SDS011;41095;53.090;6.692;2022-10-26T03:05:46;13.75;;;9.60;;
53751;SDS011;41095;53.090;6.692;2022-10-26T03:08:11;11.82;;;10.02;;
53751;SDS011;41095;53.090;6.692;2022-10-26T03:10:41;13.65;;;10.18;;
53751;SDS011;41095;53.090;6.692;2022-10-26T03:13:09;11.43;;;9.90;;
53751;SDS011;41095;53.090;6.692;2022-10-26T03:15:36;10.43;;;9.38;;
53751;SDS011;41095;53.090;6.692;2022-10-26T03:18:02;14.48;;;10.45;;
53751;SDS011;41095;53.090;6.692;2022-10-26T03:20:28;14.23;;;10.40;;
53751;SDS011;41095;53.090;6.692;2022-10-26T03:22:54;11.73;;;9.07;;
53751;SDS011;41095;53.090;6.692;2022-10-26T03:25:21;11.77;;;9.52;;
53751;SDS011;41095;53.090;6.692;2022-10-26T03:27:54;11.98;;;8.00;;
53751;SDS011;41095;53.090;6.692;2022-10-26T03:30:24;19.30;;;11.80;;
53751;SDS011;41095;53.090;6.692;2022-10-26T03:32:51;17.52;;;11.85;;
53751;SDS011;41095;53.090;6.692;2022-10-26T03:35:16;17.13;;;12.40;;
53751;SDS011;41095;53.090;6.692;2022-10-26T03:37:42;19.33;;;12.05;;
53751;SDS011;41095;53.090;6.692;2022-10-26T03:40:08;18.88;;;12.05;;
53751;SDS011;41095;53.090;6.692;2022-10-26T03:42:37;17.20;;;11.38;;
53751;SDS011;41095;53.090;6.692;2022-10-26T03:45:04;22.98;;;13.48;;
53751;SDS011;41095;53.090;6.692;2022-10-26T03:47:30;18.42;;;12.68;;
53751;SDS011;41095;53.090;6.692;2022-10-26T03:49:56;16.17;;;12.23;;
53751;SDS011;41095;53.090;6.692;2022-10-26T03:52:21;18.23;;;12.35;;
53751;SDS011;41095;53.090;6.692;2022-10-26T03:54:49;18.55;;;13.18;;
53751;SDS011;41095;53.090;6.692;2022-10-26T03:57:15;17.40;;;13.13;;
53751;SDS011;41095;53.090;6.692;2022-10-26T03:59:41;17.35;;;11.80;;
53751;SDS011;41095;53.090;6.692;2022-10-26T04:02:07;15.93;;;11.68;;
53751;SDS011;41095;53.090;6.692;2022-10-26T04:04:32;16.05;;;12.38;;
53751;SDS011;41095;53.090;6.692;2022-10-26T04:06:58;16.58;;;12.18;;
53751;SDS011;41095;53.090;6.692;2022-10-26T04:09:23;17.27;;;11.35;;
53751;SDS011;41095;53.090;6.692;2022-10-26T04:11:49;20.95;;;13.73;;
53751;SDS011;41095;53.090;6.692;2022-10-26T04:14:15;19.33;;;13.23;;
53751;SDS011;41095;53.090;6.692;2022-10-26T04:16:40;17.27;;;13.73;;
53751;SDS011;41095;53.090;6.692;2022-10-26T04:19:06;18.55;;;13.30;;
53751;SDS011;41095;53.090;6.692;2022-10-26T04:21:32;20.13;;;13.70;;
53751;SDS011;41095;53.090;6.692;2022-10-26T04:23:59;15.45;;;13.07;;
53751;SDS011;41095;53.090;6.692;2022-10-26T04:26:25;22.08;;;13.68;;
53751;SDS011;41095;53.090;6.692;2022-10-26T04:28:51;17.08;;;12.70;;
53751;SDS011;41095;53.090;6.692;2022-10-26T04:31:16;17.52;;;12.93;;
53751;SDS011;41095;53.090;6.692;2022-10-26T04:33:42;19.38;;;13.95;;
53751;SDS011;41095;53.090;6.692;2022-10-26T04:36:08;18.98;;;13.85;;
53751;SDS011;41095;53.090;6.692;2022-10-26T04:38:33;21.30;;;12.43;;
53751;SDS011;41095;53.090;6.692;2022-10-26T04:40:59;18.20;;;13.18;;
53751;SDS011;41095;53.090;6.692;2022-10-26T04:43:25;18.08;;;13.63;;
53751;SDS011;41095;53.090;6.692;2022-10-26T04:45:54;20.25;;;13.98;;
53751;SDS011;41095;53.090;6.692;2022-10-26T04:48:21;21.85;;;12.35;;
53751;SDS011;41095;53.090;6.692;2022-10-26T04:50:46;18.30;;;13.35;;
53751;SDS011;41095;53.090;6.692;2022-10-26T04:53:12;18.58;;;13.52;;
53751;SDS011;41095;53.090;6.692;2022-10-26T04:55:38;17.73;;;12.48;;
53751;SDS011;41095;53.090;6.692;2022-10-26T04:58:04;18.50;;;12.30;;
53751;SDS011;41095;53.090;6.692;2022-10-26T05:00:30;22.80;;;14.38;;
53751;SDS011;41095;53.090;6.692;2022-10-26T05:03:03;18.25;;;13.75;;
53751;SDS011;41095;53.090;6.692;2022-10-26T05:05:31;17.40;;;12.98;;
53751;SDS011;41095;53.090;6.692;2022-10-26T05:07:57;18.60;;;13.18;;
53751;SDS011;41095;53.090;6.692;2022-10-26T05:10:23;15.38;;;13.05;;
53751;SDS011;41095;53.090;6.692;2022-10-26T05:12:54;20.25;;;14.20;;
53751;SDS011;41095;53.090;6.692;2022-10-26T05:15:20;18.70;;;13.35;;
53751;SDS011;41095;53.090;6.692;2022-10-26T05:17:50;22.25;;;14.27;;
53751;SDS011;41095;53.090;6.692;2022-10-26T05:20:29;22.27;;;12.90;;
53751;SDS011;41095;53.090;6.692;2022-10-26T05:22:57;18.55;;;12.80;;
53751;SDS011;41095;53.090;6.692;2022-10-26T05:25:25;17.80;;;12.82;;
53751;SDS011;41095;53.090;6.692;2022-10-26T05:27:56;20.63;;;13.52;;
53751;SDS011;41095;53.090;6.692;2022-10-26T05:30:25;19.65;;;13.85;;
53751;SDS011;41095;53.090;6.692;2022-10-26T05:32:59;20.17;;;13.60;;
53751;SDS011;41095;53.090;6.692;2022-10-26T05:35:28;19.88;;;13.85;;
53751;SDS011;41095;53.090;6.692;2022-10-26T05:37:55;20.95;;;14.10;;
53751;SDS011;41095;53.090;6.692;2022-10-26T05:40:21;19.25;;;14.32;;
53751;SDS011;41095;53.090;6.692;2022-10-26T05:42:46;18.77;;;13.25;;
53751;SDS011;41095;53.090;6.692;2022-10-26T05:45:12;19.63;;;13.73;;
53751;SDS011;41095;53.090;6.692;2022-10-26T05:47:39;19.23;;;14.32;;
53751;SDS011;41095;53.090;6.692;2022-10-26T05:50:05;19.83;;;14.77;;
53751;SDS011;41095;53.090;6.692;2022-10-26T05:52:38;18.40;;;12.80;;
53751;SDS011;41095;53.090;6.692;2022-10-26T05:55:05;20.98;;;13.13;;
53751;SDS011;41095;53.090;6.692;2022-10-26T05:57:35;19.40;;;12.20;;
53751;SDS011;41095;53.090;6.692;2022-10-26T06:00:05;20.65;;;13.48;;
53751;SDS011;41095;53.090;6.692;2022-10-26T06:05:03;22.42;;;13.13;;
53751;SDS011;41095;53.090;6.692;2022-10-26T06:07:30;18.63;;;13.95;;
53751;SDS011;41095;53.090;6.692;2022-10-26T06:09:57;18.75;;;13.93;;
53751;SDS011;41095;53.090;6.692;2022-10-26T06:12:23;19.80;;;12.70;;
53751;SDS011;41095;53.090;6.692;2022-10-26T06:14:50;19.08;;;12.95;;
53751;SDS011;41095;53.090;6.692;2022-10-26T06:25:26;19.10;;;12.68;;
53751;SDS011;41095;53.090;6.692;2022-10-26T06:31:10;16.10;;;11.35;;
53751;SDS011;41095;53.090;6.692;2022-10-26T06:33:37;17.90;;;11.70;;
53751;SDS011;41095;53.090;6.692;2022-10-26T06:36:07;14.15;;;10.68;;
53751;SDS011;41095;53.090;6.692;2022-10-26T06:38:42;21.55;;;12.32;;
53751;SDS011;41095;53.090;6.692;2022-10-26T06:41:09;21.05;;;12.40;;
53751;SDS011;41095;53.090;6.692;2022-10-26T06:43:39;15.00;;;10.50;;
53751;SDS011;41095;53.090;6.692;2022-10-26T06:46:23;15.40;;;10.68;;
53751;SDS011;41095;53.090;6.692;2022-10-26T06:49:07;22.42;;;11.20;;
53751;SDS011;41095;53.090;6.692;2022-10-26T06:52:07;16.63;;;11.55;;
53751;SDS011;41095;53.090;6.692;2022-10-26T06:57:15;16.27;;;10.10;;
53751;SDS011;41095;53.090;6.692;2022-10-26T06:59:43;11.45;;;9.70;;
53751;SDS011;41095;53.090;6.692;2022-10-26T07:02:13;15.57;;;10.43;;
53751;SDS011;41095;53.090;6.692;2022-10-26T07:04:39;12.07;;;8.68;;
53751;SDS011;41095;53.090;6.692;2022-10-26T07:07:07;14.23;;;10.23;;
53751;SDS011;41095;53.090;6.692;2022-10-26T07:09:34;12.18;;;8.23;;
53751;SDS011;41095;53.090;6.692;2022-10-26T07:11:59;13.55;;;9.05;;
53751;SDS011;41095;53.090;6.692;2022-10-26T07:14:25;14.35;;;9.43;;
53751;SDS011;41095;53.090;6.692;2022-10-26T07:16:51;12.45;;;9.45;;
53751;SDS011;41095;53.090;6.692;2022-10-26T07:19:17;14.73;;;8.35;;
53751;SDS011;41095;53.090;6.692;2022-10-26T07:21:42;15.18;;;8.27;;
53751;SDS011;41095;53.090;6.692;2022-10-26T07:24:08;13.85;;;8.82;;
53751;SDS011;41095;53.090;6.692;2022-10-26T07:26:34;13.70;;;7.88;;
53751;SDS011;41095;53.090;6.692;2022-10-26T07:29:00;13.13;;;7.82;;
53751;SDS011;41095;53.090;6.692;2022-10-26T07:31:25;10.38;;;7.45;;
53751;SDS011;41095;53.090;6.692;2022-10-26T07:33:54;10.02;;;7.03;;
53751;SDS011;41095;53.090;6.692;2022-10-26T07:36:20;9.80;;;6.90;;
53751;SDS011;41095;53.090;6.692;2022-10-26T07:38:46;11.27;;;7.32;;
53751;SDS011;41095;53.090;6.692;2022-10-26T07:41:14;9.13;;;6.88;;
53751;SDS011;41095;53.090;6.692;2022-10-26T07:43:40;10.32;;;7.72;;
53751;SDS011;41095;53.090;6.692;2022-10-26T07:46:09;11.25;;;7.28;;
53751;SDS011;41095;53.090;6.692;2022-10-26T07:48:35;11.30;;;6.80;;
53751;SDS011;41095;53.090;6.692;2022-10-26T07:51:00;9.70;;;5.93;;
53751;SDS011;41095;53.090;6.692;2022-10-26T07:53:26;10.85;;;5.93;;
53751;SDS011;41095;53.090;6.692;2022-10-26T07:55:53;10.77;;;7.20;;
53751;SDS011;41095;53.090;6.692;2022-10-26T07:58:19;11.75;;;6.30;;
53751;SDS011;41095;53.090;6.692;2022-10-26T08:00:48;9.80;;;7.20;;
53751;SDS011;41095;53.090;6.692;2022-10-26T08:03:14;8.63;;;6.55;;
53751;SDS011;41095;53.090;6.692;2022-10-26T08:05:41;6.15;;;5.53;;
53751;SDS011;41095;53.090;6.692;2022-10-26T08:08:07;12.60;;;6.82;;
53751;SDS011;41095;53.090;6.692;2022-10-26T08:10:32;10.20;;;6.85;;
53751;SDS011;41095;53.090;6.692;2022-10-26T08:12:58;12.18;;;6.78;;
53751;SDS011;41095;53.090;6.692;2022-10-26T08:15:24;6.93;;;5.00;;
53751;SDS011;41095;53.090;6.692;2022-10-26T08:17:49;8.57;;;6.43;;
53751;SDS011;41095;53.090;6.692;2022-10-26T08:20:15;10.00;;;6.07;;
53751;SDS011;41095;53.090;6.692;2022-10-26T08:22:41;10.35;;;6.13;;
53751;SDS011;41095;53.090;6.692;2022-10-26T08:25:07;11.35;;;5.95;;
53751;SDS011;41095;53.090;6.692;2022-10-26T08:27:32;7.30;;;5.70;;
53751;SDS011;41095;53.090;6.692;2022-10-26T08:29:58;7.47;;;5.75;;
53751;SDS011;41095;53.090;6.692;2022-10-26T08:32:24;7.22;;;5.35;;
53751;SDS011;41095;53.090;6.692;2022-10-26T08:34:49;6.55;;;4.55;;
53751;SDS011;41095;53.090;6.692;2022-10-26T08:37:15;7.43;;;5.38;;
53751;SDS011;41095;53.090;6.692;2022-10-26T08:39:41;8.38;;;4.70;;
53751;SDS011;41095;53.090;6.692;2022-10-26T08:42:16;5.70;;;4.32;;
53751;SDS011;41095;53.090;6.692;2022-10-26T08:44:48;9.02;;;4.10;;
53751;SDS011;41095;53.090;6.692;2022-10-26T08:47:24;6.45;;;4.03;;
53751;SDS011;41095;53.090;6.692;2022-10-26T08:53:00;6.22;;;4.53;;
53751;SDS011;41095;53.090;6.692;2022-10-26T08:55:39;4.72;;;3.55;;
53751;SDS011;41095;53.090;6.692;2022-10-26T08:58:39;7.55;;;3.90;;
53751;SDS011;41095;53.090;6.692;2022-10-26T09:01:17;5.85;;;3.33;;
53751;SDS011;41095;53.090;6.692;2022-10-26T09:03:43;5.03;;;3.88;;
53751;SDS011;41095;53.090;6.692;2022-10-26T09:11:39;5.38;;;3.25;;
53751;SDS011;41095;53.090;6.692;2022-10-26T09:16:59;5.47;;;3.58;;
53751;SDS011;41095;53.090;6.692;2022-10-26T09:25:28;6.95;;;3.45;;
53751;SDS011;41095;53.090;6.692;2022-10-26T09:28:02;3.35;;;2.67;;
53751;SDS011;41095;53.090;6.692;2022-10-26T09:30:30;7.80;;;3.70;;
53751;SDS011;41095;53.090;6.692;2022-10-26T09:33:01;3.75;;;2.53;;
53751;SDS011;41095;53.090;6.692;2022-10-26T09:38:19;4.07;;;2.67;;
53751;SDS011;41095;53.090;6.692;2022-10-26T09:43:38;6.28;;;3.08;;
53751;SDS011;41095;53.090;6.692;2022-10-26T09:46:12;5.80;;;2.75;;
53751;SDS011;41095;53.090;6.692;2022-10-26T09:48:48;6.25;;;3.00;;
53751;SDS011;41095;53.090;6.692;2022-10-26T09:51:17;4.50;;;2.40;;
53751;SDS011;41095;53.090;6.692;2022-10-26T09:53:44;4.82;;;2.65;;
53751;SDS011;41095;53.090;6.692;2022-10-26T09:56:11;6.18;;;2.80;;
53751;SDS011;41095;53.090;6.692;2022-10-26T10:01:34;3.80;;;2.90;;
53751;SDS011;41095;53.090;6.692;2022-10-26T10:04:15;6.65;;;3.33;;
53751;SDS011;41095;53.090;6.692;2022-10-26T10:09:27;5.88;;;2.63;;
53751;SDS011;41095;53.090;6.692;2022-10-26T10:11:54;3.72;;;2.58;;
53751;SDS011;41095;53.090;6.692;2022-10-26T10:14:29;6.90;;;2.47;;
53751;SDS011;41095;53.090;6.692;2022-10-26T10:17:04;2.45;;;2.03;;
53751;SDS011;41095;53.090;6.692;2022-10-26T10:19:36;4.15;;;2.88;;
53751;SDS011;41095;53.090;6.692;2022-10-26T10:24:53;5.57;;;2.30;;
53751;SDS011;41095;53.090;6.692;2022-10-26T10:27:24;5.25;;;2.65;;
53751;SDS011;41095;53.090;6.692;2022-10-26T10:29:54;4.47;;;2.10;;
53751;SDS011;41095;53.090;6.692;2022-10-26T10:32:24;3.50;;;2.28;;
53751;SDS011;41095;53.090;6.692;2022-10-26T10:34:52;7.00;;;2.22;;
53751;SDS011;41095;53.090;6.692;2022-10-26T10:37:30;3.53;;;2.33;;
53751;SDS011;41095;53.090;6.692;2022-10-26T10:40:21;9.07;;;2.70;;
53751;SDS011;41095;53.090;6.692;2022-10-26T10:42:46;4.15;;;2.92;;
53751;SDS011;41095;53.090;6.692;2022-10-26T10:45:18;2.28;;;2.08;;
53751;SDS011;41095;53.090;6.692;2022-10-26T10:50:37;3.65;;;2.60;;
53751;SDS011;41095;53.090;6.692;2022-10-26T10:53:17;4.72;;;2.63;;
53751;SDS011;41095;53.090;6.692;2022-10-26T10:56:05;5.72;;;3.63;;
53751;SDS011;41095;53.090;6.692;2022-10-26T11:01:46;4.35;;;2.72;;
53751;SDS011;41095;53.090;6.692;2022-10-26T11:04:55;3.97;;;2.63;;
53751;SDS011;41095;53.090;6.692;2022-10-26T11:07:02;5.88;;;2.85;;
53751;SDS011;41095;53.090;6.692;2022-10-26T11:09:30;4.00;;;2.42;;
53751;SDS011;41095;53.090;6.692;2022-10-26T11:12:01;4.35;;;2.40;;
53751;SDS011;41095;53.090;6.692;2022-10-26T11:14:37;3.88;;;2.33;;
53751;SDS011;41095;53.090;6.692;2022-10-26T11:17:19;7.15;;;3.30;;
53751;SDS011;41095;53.090;6.692;2022-10-26T11:20:02;4.65;;;2.75;;
53751;SDS011;41095;53.090;6.692;2022-10-26T11:23:25;5.88;;;3.22;;
53751;SDS011;41095;53.090;6.692;2022-10-26T11:31:19;6.55;;;2.33;;
53751;SDS011;41095;53.090;6.692;2022-10-26T11:36:34;7.68;;;2.53;;
53751;SDS011;41095;53.090;6.692;2022-10-26T11:42:00;4.50;;;2.45;;
53751;SDS011;41095;53.090;6.692;2022-10-26T11:44:33;2.25;;;2.05;;
53751;SDS011;41095;53.090;6.692;2022-10-26T11:50:29;7.85;;;2.60;;
53751;SDS011;41095;53.090;6.692;2022-10-26T11:53:04;3.42;;;2.22;;
53751;SDS011;41095;53.090;6.692;2022-10-26T11:55:39;4.00;;;2.78;;
53751;SDS011;41095;53.090;6.692;2022-10-26T11:58:07;5.25;;;2.92;;
53751;SDS011;41095;53.090;6.692;2022-10-26T12:00:34;6.20;;;3.03;;
53751;SDS011;41095;53.090;6.692;2022-10-26T12:03:13;3.50;;;2.58;;
53751;SDS011;41095;53.090;6.692;2022-10-26T12:05:48;2.38;;;2.05;;
53751;SDS011;41095;53.090;6.692;2022-10-26T12:08:25;4.75;;;2.22;;
53751;SDS011;41095;53.090;6.692;2022-10-26T12:11:04;4.82;;;2.35;;
53751;SDS011;41095;53.090;6.692;2022-10-26T12:16:10;6.20;;;2.95;;
53751;SDS011;41095;53.090;6.692;2022-10-26T12:18:53;3.78;;;2.70;;
53751;SDS011;41095;53.090;6.692;2022-10-26T12:21:27;5.47;;;2.78;;
53751;SDS011;41095;53.090;6.692;2022-10-26T12:23:59;4.20;;;2.80;;
53751;SDS011;41095;53.090;6.692;2022-10-26T12:34:01;5.30;;;2.78;;
53751;SDS011;41095;53.090;6.692;2022-10-26T12:36:47;5.53;;;2.65;;
53751;SDS011;41095;53.090;6.692;2022-10-26T12:39:26;3.25;;;2.60;;
53751;SDS011;41095;53.090;6.692;2022-10-26T12:41:56;6.13;;;3.07;;
53751;SDS011;41095;53.090;6.692;2022-10-26T12:55:32;4.55;;;2.72;;
53751;SDS011;41095;53.090;6.692;2022-10-26T13:00:48;5.28;;;2.63;;
53751;SDS011;41095;53.090;6.692;2022-10-26T13:08:42;4.20;;;2.65;;
53751;SDS011;41095;53.090;6.692;2022-10-26T13:11:17;4.20;;;2.80;;
53751;SDS011;41095;53.090;6.692;2022-10-26T13:13:51;6.80;;;2.75;;
53751;SDS011;41095;53.090;6.692;2022-10-26T13:16:19;5.47;;;3.13;;
53751;SDS011;41095;53.090;6.692;2022-10-26T13:18:45;4.93;;;2.97;;
53751;SDS011;41095;53.090;6.692;2022-10-26T13:21:15;3.30;;;3.00;;
53751;SDS011;41095;53.090;6.692;2022-10-26T13:23:46;5.38;;;3.00;;
53751;SDS011;41095;53.090;6.692;2022-10-26T13:26:29;6.10;;;3.22;;
53751;SDS011;41095;53.090;6.692;2022-10-26T13:28:57;5.88;;;3.40;;
53751;SDS011;41095;53.090;6.692;2022-10-26T13:39:43;6.45;;;3.08;;
53751;SDS011;41095;53.090;6.692;2022-10-26T13:42:15;5.80;;;3.28;;
53751;SDS011;41095;53.090;6.692;2022-10-26T13:47:40;3.25;;;2.92;;
53751;SDS011;41095;53.090;6.692;2022-10-26T13:50:18;6.43;;;3.35;;
53751;SDS011;41095;53.090;6.692;2022-10-26T13:52:50;4.55;;;2.92;;
53751;SDS011;41095;53.090;6.692;2022-10-26T13:55:25;5.75;;;4.00;;
53751;SDS011;41095;53.090;6.692;2022-10-26T13:58:24;6.38;;;4.38;;
53751;SDS011;41095;53.090;6.692;2022-10-26T14:03:37;10.32;;;4.88;;
53751;SDS011;41095;53.090;6.692;2022-10-26T14:06:14;8.15;;;4.07;;
53751;SDS011;41095;53.090;6.692;2022-10-26T14:08:47;8.88;;;4.65;;
53751;SDS011;41095;53.090;6.692;2022-10-26T14:11:16;6.53;;;4.95;;
53751;SDS011;41095;53.090;6.692;2022-10-26T14:13:46;6.13;;;4.43;;
53751;SDS011;41095;53.090;6.692;2022-10-26T14:16:14;5.85;;;4.65;;
53751;SDS011;41095;53.090;6.692;2022-10-26T14:18:45;6.78;;;4.68;;
53751;SDS011;41095;53.090;6.692;2022-10-26T14:21:14;10.38;;;4.90;;
53751;SDS011;41095;53.090;6.692;2022-10-26T14:26:44;11.05;;;4.57;;
53751;SDS011;41095;53.090;6.692;2022-10-26T14:29:13;8.10;;;4.22;;
53751;SDS011;41095;53.090;6.692;2022-10-26T14:31:50;9.02;;;5.43;;
53751;SDS011;41095;53.090;6.692;2022-10-26T14:34:16;7.15;;;5.22;;
53751;SDS011;41095;53.090;6.692;2022-10-26T14:36:57;10.23;;;5.38;;
53751;SDS011;41095;53.090;6.692;2022-10-26T14:39:30;8.50;;;5.10;;
53751;SDS011;41095;53.090;6.692;2022-10-26T14:44:53;7.13;;;4.72;;
53751;SDS011;41095;53.090;6.692;2022-10-26T14:47:22;5.50;;;4.38;;
53751;SDS011;41095;53.090;6.692;2022-10-26T14:49:48;5.28;;;4.10;;
53751;SDS011;41095;53.090;6.692;2022-10-26T14:52:15;5.57;;;4.13;;
53751;SDS011;41095;53.090;6.692;2022-10-26T14:55:10;5.50;;;4.60;;
53751;SDS011;41095;53.090;6.692;2022-10-26T14:57:39;4.72;;;4.15;;
53751;SDS011;41095;53.090;6.692;2022-10-26T15:00:13;7.72;;;4.07;;
53751;SDS011;41095;53.090;6.692;2022-10-26T15:02:47;7.70;;;4.18;;
53751;SDS011;41095;53.090;6.692;2022-10-26T15:07:54;4.85;;;4.47;;
53751;SDS011;41095;53.090;6.692;2022-10-26T15:13:17;5.03;;;4.55;;
53751;SDS011;41095;53.090;6.692;2022-10-26T15:15:51;6.53;;;4.68;;
53751;SDS011;41095;53.090;6.692;2022-10-26T15:18:22;5.03;;;4.20;;
53751;SDS011;41095;53.090;6.692;2022-10-26T15:20:51;7.70;;;4.75;;
53751;SDS011;41095;53.090;6.692;2022-10-26T15:23:21;7.88;;;5.13;;
53751;SDS011;41095;53.090;6.692;2022-10-26T15:25:53;8.20;;;4.88;;
53751;SDS011;41095;53.090;6.692;2022-10-26T15:33:28;7.22;;;4.70;;
53751;SDS011;41095;53.090;6.692;2022-10-26T15:38:32;4.93;;;4.18;;
53751;SDS011;41095;53.090;6.692;2022-10-26T15:40:58;5.28;;;4.63;;
53751;SDS011;41095;53.090;6.692;2022-10-26T15:43:24;13.45;;;5.28;;
53751;SDS011;41095;53.090;6.692;2022-10-26T15:45:49;5.95;;;4.57;;
53751;SDS011;41095;53.090;6.692;2022-10-26T15:48:22;5.78;;;5.18;;
53751;SDS011;41095;53.090;6.692;2022-10-26T15:50:55;5.13;;;4.63;;
53751;SDS011;41095;53.090;6.692;2022-10-26T15:53:21;6.20;;;5.45;;
53751;SDS011;41095;53.090;6.692;2022-10-26T15:55:52;6.07;;;4.55;;
53751;SDS011;41095;53.090;6.692;2022-10-26T15:58:20;9.27;;;5.63;;
53751;SDS011;41095;53.090;6.692;2022-10-26T16:00:46;5.57;;;4.55;;
53751;SDS011;41095;53.090;6.692;2022-10-26T16:03:13;5.15;;;4.68;;
53751;SDS011;41095;53.090;6.692;2022-10-26T16:05:58;7.45;;;4.60;;
53751;SDS011;41095;53.090;6.692;2022-10-26T16:08:25;5.85;;;4.35;;
53751;SDS011;41095;53.090;6.692;2022-10-26T16:10:53;8.30;;;4.97;;
53751;SDS011;41095;53.090;6.692;2022-10-26T16:13:19;6.40;;;4.60;;
53751;SDS011;41095;53.090;6.692;2022-10-26T16:15:45;7.43;;;4.85;;
53751;SDS011;41095;53.090;6.692;2022-10-26T16:18:11;7.30;;;4.78;;
53751;SDS011;41095;53.090;6.692;2022-10-26T16:20:37;5.57;;;4.57;;
53751;SDS011;41095;53.090;6.692;2022-10-26T16:23:03;6.45;;;4.18;;
53751;SDS011;41095;53.090;6.692;2022-10-26T16:25:33;5.00;;;4.15;;
53751;SDS011;41095;53.090;6.692;2022-10-26T16:28:05;4.97;;;4.50;;
53751;SDS011;41095;53.090;6.692;2022-10-26T16:30:31;8.13;;;4.93;;
53751;SDS011;41095;53.090;6.692;2022-10-26T16:32:57;6.85;;;4.93;;
53751;SDS011;41095;53.090;6.692;2022-10-26T16:35:22;6.05;;;4.78;;
53751;SDS011;41095;53.090;6.692;2022-10-26T16:37:48;5.43;;;3.78;;
53751;SDS011;41095;53.090;6.692;2022-10-26T16:40:14;4.47;;;4.07;;
53751;SDS011;41095;53.090;6.692;2022-10-26T16:42:39;5.10;;;3.03;;
53751;SDS011;41095;53.090;6.692;2022-10-26T16:45:09;8.27;;;4.38;;
53751;SDS011;41095;53.090;6.692;2022-10-26T16:47:35;3.63;;;3.33;;
53751;SDS011;41095;53.090;6.692;2022-10-26T16:50:03;4.05;;;3.65;;
53751;SDS011;41095;53.090;6.692;2022-10-26T16:52:31;6.47;;;4.55;;
53751;SDS011;41095;53.090;6.692;2022-10-26T16:54:58;4.75;;;4.13;;
53751;SDS011;41095;53.090;6.692;2022-10-26T16:57:23;5.43;;;4.95;;
53751;SDS011;41095;53.090;6.692;2022-10-26T16:59:49;5.28;;;4.38;;
53751;SDS011;41095;53.090;6.692;2022-10-26T17:02:15;11.98;;;4.25;;
53751;SDS011;41095;53.090;6.692;2022-10-26T17:04:41;5.22;;;3.85;;
53751;SDS011;41095;53.090;6.692;2022-10-26T17:07:06;6.07;;;3.95;;
53751;SDS011;41095;53.090;6.692;2022-10-26T17:09:32;9.50;;;3.75;;
53751;SDS011;41095;53.090;6.692;2022-10-26T17:11:58;5.95;;;4.63;;
53751;SDS011;41095;53.090;6.692;2022-10-26T17:14:23;8.25;;;4.18;;
53751;SDS011;41095;53.090;6.692;2022-10-26T17:16:49;9.55;;;4.20;;
53751;SDS011;41095;53.090;6.692;2022-10-26T17:19:15;6.22;;;4.82;;
53751;SDS011;41095;53.090;6.692;2022-10-26T17:21:40;4.20;;;3.78;;
53751;SDS011;41095;53.090;6.692;2022-10-26T17:24:08;5.00;;;4.40;;